sensor_id;sensor_type;location;lat;lon;timestamp;P1;durP1;ratioP1;P2;durP2;ratioP2
33802;SDS011;20110;53.120;5.786;2023-06-26T00:02:03;15.63;;;11.40;;
33802;SDS011;20110;53.120;5.786;2023-06-26T00:04:29;16.08;;;12.00;;
33802;SDS011;20110;53.120;5.786;2023-06-26T00:06:55;20.15;;;11.70;;
33802;SDS011;20110;53.120;5.786;2023-06-26T00:09:21;15.70;;;11.75;;
33802;SDS011;20110;53.120;5.786;2023-06-26T00:11:46;16.58;;;13.27;;
33802;SDS011;20110;53.120;5.786;2023-06-26T00:14:12;15.93;;;12.70;;
33802;SDS011;20110;53.120;5.786;2023-06-26T00:16:38;17.90;;;13.10;;
33802;SDS011;20110;53.120;5.786;2023-06-26T00:19:04;18.88;;;13.30;;
33802;SDS011;20110;53.120;5.786;2023-06-26T00:21:30;14.25;;;12.30;;
33802;SDS011;20110;53.120;5.786;2023-06-26T00:23:55;18.50;;;13.52;;
33802;SDS011;20110;53.120;5.786;2023-06-26T00:26:21;16.15;;;13.60;;
33802;SDS011;20110;53.120;5.786;2023-06-26T00:28:49;18.65;;;12.75;;
33802;SDS011;20110;53.120;5.786;2023-06-26T00:31:15;15.02;;;12.52;;
33802;SDS011;20110;53.120;5.786;2023-06-26T00:33:40;17.80;;;12.13;;
33802;SDS011;20110;53.120;5.786;2023-06-26T00:36:06;16.10;;;12.70;;
33802;SDS011;20110;53.120;5.786;2023-06-26T00:38:32;17.15;;;13.40;;
33802;SDS011;20110;53.120;5.786;2023-06-26T00:40:58;19.70;;;12.75;;
33802;SDS011;20110;53.120;5.786;2023-06-26T00:43:23;14.98;;;11.93;;
33802;SDS011;20110;53.120;5.786;2023-06-26T00:45:49;13.95;;;11.65;;
33802;SDS011;20110;53.120;5.786;2023-06-26T00:48:15;14.88;;;11.88;;
33802;SDS011;20110;53.120;5.786;2023-06-26T00:50:42;16.85;;;10.85;;
33802;SDS011;20110;53.120;5.786;2023-06-26T00:53:10;13.52;;;11.23;;
33802;SDS011;20110;53.120;5.786;2023-06-26T00:55:36;13.35;;;11.80;;
33802;SDS011;20110;53.120;5.786;2023-06-26T00:58:02;15.30;;;11.55;;
33802;SDS011;20110;53.120;5.786;2023-06-26T01:00:28;13.48;;;11.60;;
33802;SDS011;20110;53.120;5.786;2023-06-26T01:02:55;23.08;;;11.80;;
33802;SDS011;20110;53.120;5.786;2023-06-26T01:05:24;14.18;;;10.80;;
33802;SDS011;20110;53.120;5.786;2023-06-26T01:07:52;14.52;;;12.25;;
33802;SDS011;20110;53.120;5.786;2023-06-26T01:10:19;12.27;;;11.00;;
33802;SDS011;20110;53.120;5.786;2023-06-26T01:12:46;17.60;;;12.52;;
33802;SDS011;20110;53.120;5.786;2023-06-26T01:15:12;14.00;;;11.55;;
33802;SDS011;20110;53.120;5.786;2023-06-26T01:17:38;17.67;;;11.57;;
33802;SDS011;20110;53.120;5.786;2023-06-26T01:20:05;14.80;;;11.68;;
33802;SDS011;20110;53.120;5.786;2023-06-26T01:22:42;14.48;;;11.43;;
33802;SDS011;20110;53.120;5.786;2023-06-26T01:28:24;22.65;;;11.93;;
33802;SDS011;20110;53.120;5.786;2023-06-26T01:30:51;15.00;;;11.20;;
33802;SDS011;20110;53.120;5.786;2023-06-26T01:33:19;14.00;;;11.65;;
33802;SDS011;20110;53.120;5.786;2023-06-26T01:35:45;14.10;;;10.95;;
33802;SDS011;20110;53.120;5.786;2023-06-26T01:38:15;14.90;;;11.82;;
33802;SDS011;20110;53.120;5.786;2023-06-26T01:40:43;15.88;;;11.20;;
33802;SDS011;20110;53.120;5.786;2023-06-26T01:43:13;15.35;;;12.10;;
33802;SDS011;20110;53.120;5.786;2023-06-26T01:46:16;13.63;;;11.55;;
33802;SDS011;20110;53.120;5.786;2023-06-26T01:48:49;13.52;;;11.45;;
33802;SDS011;20110;53.120;5.786;2023-06-26T01:51:30;16.05;;;11.57;;
33802;SDS011;20110;53.120;5.786;2023-06-26T01:54:05;18.58;;;12.80;;
33802;SDS011;20110;53.120;5.786;2023-06-26T01:56:40;17.30;;;10.93;;
33802;SDS011;20110;53.120;5.786;2023-06-26T01:59:09;16.42;;;12.65;;
33802;SDS011;20110;53.120;5.786;2023-06-26T02:01:39;17.60;;;12.45;;
33802;SDS011;20110;53.120;5.786;2023-06-26T02:04:05;17.27;;;12.10;;
33802;SDS011;20110;53.120;5.786;2023-06-26T02:06:31;12.98;;;11.52;;
33802;SDS011;20110;53.120;5.786;2023-06-26T02:08:57;14.65;;;11.63;;
33802;SDS011;20110;53.120;5.786;2023-06-26T02:11:23;16.27;;;11.63;;
33802;SDS011;20110;53.120;5.786;2023-06-26T02:13:48;16.33;;;10.70;;
33802;SDS011;20110;53.120;5.786;2023-06-26T02:16:14;11.57;;;10.43;;
33802;SDS011;20110;53.120;5.786;2023-06-26T02:18:40;16.25;;;10.82;;
33802;SDS011;20110;53.120;5.786;2023-06-26T02:21:06;14.98;;;10.20;;
33802;SDS011;20110;53.120;5.786;2023-06-26T02:23:34;11.32;;;9.07;;
33802;SDS011;20110;53.120;5.786;2023-06-26T02:26:00;10.00;;;8.15;;
33802;SDS011;20110;53.120;5.786;2023-06-26T02:28:27;11.00;;;7.93;;
33802;SDS011;20110;53.120;5.786;2023-06-26T02:30:53;12.27;;;8.90;;
33802;SDS011;20110;53.120;5.786;2023-06-26T02:33:19;9.82;;;8.32;;
33802;SDS011;20110;53.120;5.786;2023-06-26T02:35:44;14.57;;;9.68;;
33802;SDS011;20110;53.120;5.786;2023-06-26T02:38:10;16.92;;;10.20;;
33802;SDS011;20110;53.120;5.786;2023-06-26T02:40:38;13.65;;;10.43;;
33802;SDS011;20110;53.120;5.786;2023-06-26T02:43:03;16.70;;;10.93;;
33802;SDS011;20110;53.120;5.786;2023-06-26T02:45:29;15.70;;;11.75;;
33802;SDS011;20110;53.120;5.786;2023-06-26T02:47:55;17.35;;;9.63;;
33802;SDS011;20110;53.120;5.786;2023-06-26T02:50:21;13.20;;;9.68;;
33802;SDS011;20110;53.120;5.786;2023-06-26T02:52:47;11.07;;;9.43;;
33802;SDS011;20110;53.120;5.786;2023-06-26T02:55:17;14.18;;;10.50;;
33802;SDS011;20110;53.120;5.786;2023-06-26T02:57:44;15.07;;;9.50;;
33802;SDS011;20110;53.120;5.786;2023-06-26T03:00:10;16.75;;;10.07;;
33802;SDS011;20110;53.120;5.786;2023-06-26T03:02:38;12.98;;;9.75;;
33802;SDS011;20110;53.120;5.786;2023-06-26T03:05:04;16.25;;;9.75;;
33802;SDS011;20110;53.120;5.786;2023-06-26T03:07:30;16.00;;;10.25;;
33802;SDS011;20110;53.120;5.786;2023-06-26T03:09:56;16.02;;;10.68;;
33802;SDS011;20110;53.120;5.786;2023-06-26T03:12:22;16.27;;;9.95;;
33802;SDS011;20110;53.120;5.786;2023-06-26T03:14:47;16.92;;;11.43;;
33802;SDS011;20110;53.120;5.786;2023-06-26T03:17:13;18.98;;;11.30;;
33802;SDS011;20110;53.120;5.786;2023-06-26T03:19:39;18.05;;;11.70;;
33802;SDS011;20110;53.120;5.786;2023-06-26T03:22:05;17.80;;;11.10;;
33802;SDS011;20110;53.120;5.786;2023-06-26T03:24:31;17.20;;;10.95;;
33802;SDS011;20110;53.120;5.786;2023-06-26T03:26:56;19.98;;;11.45;;
33802;SDS011;20110;53.120;5.786;2023-06-26T03:29:22;16.75;;;10.48;;
33802;SDS011;20110;53.120;5.786;2023-06-26T03:31:48;15.27;;;9.90;;
33802;SDS011;20110;53.120;5.786;2023-06-26T03:34:14;19.02;;;12.18;;
33802;SDS011;20110;53.120;5.786;2023-06-26T03:36:39;19.42;;;11.15;;
33802;SDS011;20110;53.120;5.786;2023-06-26T03:39:06;28.48;;;12.95;;
33802;SDS011;20110;53.120;5.786;2023-06-26T03:41:32;33.05;;;13.13;;
33802;SDS011;20110;53.120;5.786;2023-06-26T03:43:57;24.35;;;15.45;;
33802;SDS011;20110;53.120;5.786;2023-06-26T03:46:25;35.88;;;16.77;;
33802;SDS011;20110;53.120;5.786;2023-06-26T03:48:51;36.90;;;18.40;;
33802;SDS011;20110;53.120;5.786;2023-06-26T03:51:17;29.90;;;19.13;;
33802;SDS011;20110;53.120;5.786;2023-06-26T03:53:43;36.83;;;26.80;;
33802;SDS011;20110;53.120;5.786;2023-06-26T03:56:09;38.85;;;26.52;;
33802;SDS011;20110;53.120;5.786;2023-06-26T03:58:34;41.45;;;26.75;;
33802;SDS011;20110;53.120;5.786;2023-06-26T04:01:00;33.83;;;24.42;;
33802;SDS011;20110;53.120;5.786;2023-06-26T04:03:26;30.23;;;21.45;;
33802;SDS011;20110;53.120;5.786;2023-06-26T04:05:52;35.03;;;20.90;;
33802;SDS011;20110;53.120;5.786;2023-06-26T04:08:18;27.50;;;17.60;;
33802;SDS011;20110;53.120;5.786;2023-06-26T04:10:45;38.85;;;17.88;;
33802;SDS011;20110;53.120;5.786;2023-06-26T04:13:12;30.77;;;17.27;;
33802;SDS011;20110;53.120;5.786;2023-06-26T04:15:39;32.97;;;16.35;;
33802;SDS011;20110;53.120;5.786;2023-06-26T04:18:05;31.88;;;16.10;;
33802;SDS011;20110;53.120;5.786;2023-06-26T04:20:31;20.55;;;14.15;;
33802;SDS011;20110;53.120;5.786;2023-06-26T04:22:56;27.73;;;13.98;;
33802;SDS011;20110;53.120;5.786;2023-06-26T04:25:22;21.20;;;12.52;;
33802;SDS011;20110;53.120;5.786;2023-06-26T04:27:48;25.25;;;11.80;;
33802;SDS011;20110;53.120;5.786;2023-06-26T04:30:14;22.45;;;10.77;;
33802;SDS011;20110;53.120;5.786;2023-06-26T04:32:40;21.73;;;10.05;;
33802;SDS011;20110;53.120;5.786;2023-06-26T04:35:06;18.38;;;8.30;;
33802;SDS011;20110;53.120;5.786;2023-06-26T04:37:32;16.08;;;8.65;;
33802;SDS011;20110;53.120;5.786;2023-06-26T04:39:58;12.25;;;8.00;;
33802;SDS011;20110;53.120;5.786;2023-06-26T04:42:24;15.88;;;7.68;;
33802;SDS011;20110;53.120;5.786;2023-06-26T04:44:50;17.13;;;6.68;;
33802;SDS011;20110;53.120;5.786;2023-06-26T04:47:16;12.98;;;6.47;;
33802;SDS011;20110;53.120;5.786;2023-06-26T04:49:41;13.55;;;5.47;;
33802;SDS011;20110;53.120;5.786;2023-06-26T04:52:11;13.25;;;4.90;;
33802;SDS011;20110;53.120;5.786;2023-06-26T04:54:39;13.93;;;4.70;;
33802;SDS011;20110;53.120;5.786;2023-06-26T04:57:05;13.40;;;4.68;;
33802;SDS011;20110;53.120;5.786;2023-06-26T04:59:31;17.92;;;4.75;;
33802;SDS011;20110;53.120;5.786;2023-06-26T05:01:57;17.23;;;4.50;;
33802;SDS011;20110;53.120;5.786;2023-06-26T05:04:23;15.20;;;4.10;;
33802;SDS011;20110;53.120;5.786;2023-06-26T05:06:49;16.85;;;5.15;;
33802;SDS011;20110;53.120;5.786;2023-06-26T05:09:15;12.60;;;4.90;;
33802;SDS011;20110;53.120;5.786;2023-06-26T05:11:40;13.48;;;4.90;;
33802;SDS011;20110;53.120;5.786;2023-06-26T05:14:06;12.02;;;4.07;;
33802;SDS011;20110;53.120;5.786;2023-06-26T05:16:32;16.70;;;4.60;;
33802;SDS011;20110;53.120;5.786;2023-06-26T05:19:02;11.38;;;4.03;;
33802;SDS011;20110;53.120;5.786;2023-06-26T05:21:28;9.38;;;4.13;;
33802;SDS011;20110;53.120;5.786;2023-06-26T05:23:55;17.67;;;4.20;;
33802;SDS011;20110;53.120;5.786;2023-06-26T05:26:23;12.15;;;3.95;;
33802;SDS011;20110;53.120;5.786;2023-06-26T05:28:50;10.45;;;4.10;;
33802;SDS011;20110;53.120;5.786;2023-06-26T05:31:18;13.40;;;4.53;;
33802;SDS011;20110;53.120;5.786;2023-06-26T05:33:44;10.82;;;4.13;;
33802;SDS011;20110;53.120;5.786;2023-06-26T05:36:12;10.68;;;4.00;;
33802;SDS011;20110;53.120;5.786;2023-06-26T05:38:41;19.83;;;3.63;;
33802;SDS011;20110;53.120;5.786;2023-06-26T05:41:07;9.45;;;3.67;;
33802;SDS011;20110;53.120;5.786;2023-06-26T05:43:34;10.00;;;2.95;;
33802;SDS011;20110;53.120;5.786;2023-06-26T05:45:59;14.88;;;3.53;;
33802;SDS011;20110;53.120;5.786;2023-06-26T05:48:25;10.40;;;3.08;;
33802;SDS011;20110;53.120;5.786;2023-06-26T05:50:51;9.82;;;3.30;;
33802;SDS011;20110;53.120;5.786;2023-06-26T05:53:17;8.15;;;2.70;;
33802;SDS011;20110;53.120;5.786;2023-06-26T05:55:44;14.27;;;4.15;;
33802;SDS011;20110;53.120;5.786;2023-06-26T05:58:10;13.63;;;2.80;;
33802;SDS011;20110;53.120;5.786;2023-06-26T06:00:37;16.13;;;3.35;;
33802;SDS011;20110;53.120;5.786;2023-06-26T06:03:06;14.15;;;3.63;;
33802;SDS011;20110;53.120;5.786;2023-06-26T06:05:35;6.10;;;2.90;;
33802;SDS011;20110;53.120;5.786;2023-06-26T06:08:01;9.15;;;2.92;;
33802;SDS011;20110;53.120;5.786;2023-06-26T06:10:27;8.95;;;3.03;;
33802;SDS011;20110;53.120;5.786;2023-06-26T06:12:53;8.23;;;3.03;;
33802;SDS011;20110;53.120;5.786;2023-06-26T06:15:19;6.28;;;2.70;;
33802;SDS011;20110;53.120;5.786;2023-06-26T06:17:45;5.13;;;2.42;;
33802;SDS011;20110;53.120;5.786;2023-06-26T06:20:11;14.82;;;3.25;;
33802;SDS011;20110;53.120;5.786;2023-06-26T06:22:37;7.55;;;2.63;;
33802;SDS011;20110;53.120;5.786;2023-06-26T06:25:03;10.82;;;3.13;;
33802;SDS011;20110;53.120;5.786;2023-06-26T06:27:29;6.38;;;2.50;;
33802;SDS011;20110;53.120;5.786;2023-06-26T06:29:55;14.88;;;3.40;;
33802;SDS011;20110;53.120;5.786;2023-06-26T06:32:21;9.55;;;2.83;;
33802;SDS011;20110;53.120;5.786;2023-06-26T06:34:47;13.38;;;2.67;;
33802;SDS011;20110;53.120;5.786;2023-06-26T06:37:13;11.43;;;1.98;;
33802;SDS011;20110;53.120;5.786;2023-06-26T06:39:39;4.78;;;1.90;;
33802;SDS011;20110;53.120;5.786;2023-06-26T06:42:04;15.27;;;1.92;;
33802;SDS011;20110;53.120;5.786;2023-06-26T06:44:30;4.45;;;1.75;;
33802;SDS011;20110;53.120;5.786;2023-06-26T06:46:56;5.43;;;2.15;;
33802;SDS011;20110;53.120;5.786;2023-06-26T06:49:22;2.97;;;1.65;;
33802;SDS011;20110;53.120;5.786;2023-06-26T06:51:48;2.50;;;1.77;;
33802;SDS011;20110;53.120;5.786;2023-06-26T06:54:15;3.95;;;2.30;;
33802;SDS011;20110;53.120;5.786;2023-06-26T06:56:42;5.55;;;2.70;;
33802;SDS011;20110;53.120;5.786;2023-06-26T06:59:08;4.18;;;2.50;;
33802;SDS011;20110;53.120;5.786;2023-06-26T07:01:34;4.10;;;2.28;;
33802;SDS011;20110;53.120;5.786;2023-06-26T07:04:00;3.85;;;2.60;;
33802;SDS011;20110;53.120;5.786;2023-06-26T07:06:26;5.55;;;2.40;;
33802;SDS011;20110;53.120;5.786;2023-06-26T07:08:51;9.00;;;2.50;;
33802;SDS011;20110;53.120;5.786;2023-06-26T07:11:17;2.63;;;2.00;;
33802;SDS011;20110;53.120;5.786;2023-06-26T07:13:43;8.80;;;2.72;;
33802;SDS011;20110;53.120;5.786;2023-06-26T07:16:09;6.32;;;2.50;;
33802;SDS011;20110;53.120;5.786;2023-06-26T07:18:37;7.93;;;2.58;;
33802;SDS011;20110;53.120;5.786;2023-06-26T07:21:04;6.75;;;2.13;;
33802;SDS011;20110;53.120;5.786;2023-06-26T07:23:30;4.85;;;2.40;;
33802;SDS011;20110;53.120;5.786;2023-06-26T07:25:56;8.30;;;3.00;;
33802;SDS011;20110;53.120;5.786;2023-06-26T07:28:22;3.78;;;2.60;;
33802;SDS011;20110;53.120;5.786;2023-06-26T07:30:48;4.80;;;2.10;;
33802;SDS011;20110;53.120;5.786;2023-06-26T07:33:14;6.05;;;2.22;;
33802;SDS011;20110;53.120;5.786;2023-06-26T07:35:40;9.05;;;2.08;;
33802;SDS011;20110;53.120;5.786;2023-06-26T07:38:06;6.78;;;2.88;;
33802;SDS011;20110;53.120;5.786;2023-06-26T07:40:31;4.70;;;2.50;;
33802;SDS011;20110;53.120;5.786;2023-06-26T07:42:57;4.72;;;2.85;;
33802;SDS011;20110;53.120;5.786;2023-06-26T07:45:23;2.78;;;2.10;;
33802;SDS011;20110;53.120;5.786;2023-06-26T07:47:49;5.53;;;3.85;;
33802;SDS011;20110;53.120;5.786;2023-06-26T07:50:15;6.60;;;2.63;;
33802;SDS011;20110;53.120;5.786;2023-06-26T07:52:46;12.48;;;2.95;;
33802;SDS011;20110;53.120;5.786;2023-06-26T07:55:12;5.43;;;3.03;;
33802;SDS011;20110;53.120;5.786;2023-06-26T07:57:38;5.45;;;2.60;;
33802;SDS011;20110;53.120;5.786;2023-06-26T08:00:04;5.85;;;2.50;;
33802;SDS011;20110;53.120;5.786;2023-06-26T08:02:31;7.45;;;2.30;;
33802;SDS011;20110;53.120;5.786;2023-06-26T08:04:57;5.82;;;2.47;;
33802;SDS011;20110;53.120;5.786;2023-06-26T08:07:23;4.40;;;2.33;;
33802;SDS011;20110;53.120;5.786;2023-06-26T08:09:49;8.52;;;3.15;;
33802;SDS011;20110;53.120;5.786;2023-06-26T08:12:15;6.97;;;3.60;;
33802;SDS011;20110;53.120;5.786;2023-06-26T08:14:40;11.15;;;2.72;;
33802;SDS011;20110;53.120;5.786;2023-06-26T08:17:06;11.05;;;2.70;;
33802;SDS011;20110;53.120;5.786;2023-06-26T08:19:32;4.60;;;2.53;;
33802;SDS011;20110;53.120;5.786;2023-06-26T08:21:58;9.32;;;2.78;;
33802;SDS011;20110;53.120;5.786;2023-06-26T08:24:24;6.38;;;2.90;;
33802;SDS011;20110;53.120;5.786;2023-06-26T08:26:49;5.05;;;2.92;;
33802;SDS011;20110;53.120;5.786;2023-06-26T08:29:15;7.00;;;2.90;;
33802;SDS011;20110;53.120;5.786;2023-06-26T08:31:41;7.05;;;2.90;;
33802;SDS011;20110;53.120;5.786;2023-06-26T08:34:08;5.28;;;3.20;;
33802;SDS011;20110;53.120;5.786;2023-06-26T08:36:34;5.20;;;2.85;;
33802;SDS011;20110;53.120;5.786;2023-06-26T08:39:00;7.25;;;3.20;;
33802;SDS011;20110;53.120;5.786;2023-06-26T08:41:28;7.65;;;3.33;;
33802;SDS011;20110;53.120;5.786;2023-06-26T08:43:53;4.35;;;3.47;;
33802;SDS011;20110;53.120;5.786;2023-06-26T08:46:19;6.32;;;2.85;;
33802;SDS011;20110;53.120;5.786;2023-06-26T08:48:48;5.15;;;2.85;;
33802;SDS011;20110;53.120;5.786;2023-06-26T08:51:21;7.13;;;4.60;;
33802;SDS011;20110;53.120;5.786;2023-06-26T08:54:00;6.15;;;3.42;;
33802;SDS011;20110;53.120;5.786;2023-06-26T08:56:37;7.03;;;3.47;;
33802;SDS011;20110;53.120;5.786;2023-06-26T08:59:08;8.48;;;3.65;;
33802;SDS011;20110;53.120;5.786;2023-06-26T09:01:39;8.73;;;4.38;;
33802;SDS011;20110;53.120;5.786;2023-06-26T09:04:06;5.45;;;3.80;;
33802;SDS011;20110;53.120;5.786;2023-06-26T09:06:32;9.80;;;3.58;;
33802;SDS011;20110;53.120;5.786;2023-06-26T09:08:59;11.70;;;4.30;;
33802;SDS011;20110;53.120;5.786;2023-06-26T09:11:24;6.13;;;4.68;;
33802;SDS011;20110;53.120;5.786;2023-06-26T09:13:50;9.18;;;3.90;;
33802;SDS011;20110;53.120;5.786;2023-06-26T09:16:17;10.13;;;3.72;;
33802;SDS011;20110;53.120;5.786;2023-06-26T09:18:44;5.22;;;3.22;;
33802;SDS011;20110;53.120;5.786;2023-06-26T09:21:11;6.30;;;3.80;;
33802;SDS011;20110;53.120;5.786;2023-06-26T09:23:39;7.72;;;3.92;;
33802;SDS011;20110;53.120;5.786;2023-06-26T09:26:06;7.13;;;3.38;;
33802;SDS011;20110;53.120;5.786;2023-06-26T09:28:33;13.48;;;3.67;;
33802;SDS011;20110;53.120;5.786;2023-06-26T09:31:04;5.15;;;3.33;;
33802;SDS011;20110;53.120;5.786;2023-06-26T09:33:36;6.82;;;3.97;;
33802;SDS011;20110;53.120;5.786;2023-06-26T09:36:06;6.05;;;3.45;;
33802;SDS011;20110;53.120;5.786;2023-06-26T09:38:36;7.50;;;2.80;;
33802;SDS011;20110;53.120;5.786;2023-06-26T09:41:03;7.47;;;3.17;;
33802;SDS011;20110;53.120;5.786;2023-06-26T09:43:29;6.75;;;3.30;;
33802;SDS011;20110;53.120;5.786;2023-06-26T09:45:56;5.80;;;3.15;;
33802;SDS011;20110;53.120;5.786;2023-06-26T09:48:23;9.57;;;2.85;;
33802;SDS011;20110;53.120;5.786;2023-06-26T09:50:49;10.07;;;2.60;;
33802;SDS011;20110;53.120;5.786;2023-06-26T09:53:15;11.82;;;2.78;;
33802;SDS011;20110;53.120;5.786;2023-06-26T09:55:43;5.75;;;2.47;;
33802;SDS011;20110;53.120;5.786;2023-06-26T09:58:12;9.73;;;3.08;;
33802;SDS011;20110;53.120;5.786;2023-06-26T10:00:42;9.77;;;3.03;;
33802;SDS011;20110;53.120;5.786;2023-06-26T10:03:09;8.68;;;3.83;;
33802;SDS011;20110;53.120;5.786;2023-06-26T10:05:38;5.85;;;2.63;;
33802;SDS011;20110;53.120;5.786;2023-06-26T10:08:05;6.13;;;2.45;;
33802;SDS011;20110;53.120;5.786;2023-06-26T10:10:36;7.78;;;2.03;;
33802;SDS011;20110;53.120;5.786;2023-06-26T10:13:15;9.85;;;2.30;;
33802;SDS011;20110;53.120;5.786;2023-06-26T10:15:48;5.28;;;2.00;;
33802;SDS011;20110;53.120;5.786;2023-06-26T10:18:17;7.00;;;1.88;;
33802;SDS011;20110;53.120;5.786;2023-06-26T10:20:45;4.97;;;2.05;;
33802;SDS011;20110;53.120;5.786;2023-06-26T10:23:15;5.15;;;1.85;;
33802;SDS011;20110;53.120;5.786;2023-06-26T10:25:45;7.15;;;2.25;;
33802;SDS011;20110;53.120;5.786;2023-06-26T10:28:16;3.20;;;1.38;;
33802;SDS011;20110;53.120;5.786;2023-06-26T10:30:46;12.15;;;2.13;;
33802;SDS011;20110;53.120;5.786;2023-06-26T10:33:16;8.90;;;2.05;;
33802;SDS011;20110;53.120;5.786;2023-06-26T10:35:42;5.68;;;1.95;;
33802;SDS011;20110;53.120;5.786;2023-06-26T10:38:12;3.47;;;1.77;;
33802;SDS011;20110;53.120;5.786;2023-06-26T10:43:10;4.95;;;1.98;;
33802;SDS011;20110;53.120;5.786;2023-06-26T10:45:48;3.03;;;1.30;;
33802;SDS011;20110;53.120;5.786;2023-06-26T10:48:19;7.60;;;1.83;;
33802;SDS011;20110;53.120;5.786;2023-06-26T10:50:49;5.90;;;1.48;;
33802;SDS011;20110;53.120;5.786;2023-06-26T10:55:50;6.18;;;1.80;;
33802;SDS011;20110;53.120;5.786;2023-06-26T10:58:33;9.10;;;1.60;;
33802;SDS011;20110;53.120;5.786;2023-06-26T11:03:40;6.15;;;1.70;;
33802;SDS011;20110;53.120;5.786;2023-06-26T11:06:11;4.50;;;2.17;;
33802;SDS011;20110;53.120;5.786;2023-06-26T11:14:17;11.43;;;2.08;;
33802;SDS011;20110;53.120;5.786;2023-06-26T11:16:44;4.70;;;1.70;;
33802;SDS011;20110;53.120;5.786;2023-06-26T11:19:11;6.25;;;1.92;;
33802;SDS011;20110;53.120;5.786;2023-06-26T11:21:38;2.97;;;1.77;;
33802;SDS011;20110;53.120;5.786;2023-06-26T11:24:08;7.50;;;2.50;;
33802;SDS011;20110;53.120;5.786;2023-06-26T11:26:39;8.68;;;1.60;;
33802;SDS011;20110;53.120;5.786;2023-06-26T11:29:10;9.00;;;1.73;;
33802;SDS011;20110;53.120;5.786;2023-06-26T11:31:37;8.63;;;2.30;;
33802;SDS011;20110;53.120;5.786;2023-06-26T11:34:06;7.28;;;1.85;;
33802;SDS011;20110;53.120;5.786;2023-06-26T11:36:36;7.97;;;1.88;;
33802;SDS011;20110;53.120;5.786;2023-06-26T11:39:05;8.13;;;2.80;;
33802;SDS011;20110;53.120;5.786;2023-06-26T11:41:32;8.15;;;2.17;;
33802;SDS011;20110;53.120;5.786;2023-06-26T11:44:02;4.95;;;1.73;;
33802;SDS011;20110;53.120;5.786;2023-06-26T11:46:36;5.97;;;2.28;;
33802;SDS011;20110;53.120;5.786;2023-06-26T11:49:06;4.75;;;1.80;;
33802;SDS011;20110;53.120;5.786;2023-06-26T11:51:32;6.38;;;2.22;;
33802;SDS011;20110;53.120;5.786;2023-06-26T11:54:01;7.72;;;2.08;;
33802;SDS011;20110;53.120;5.786;2023-06-26T11:56:29;6.82;;;2.05;;
33802;SDS011;20110;53.120;5.786;2023-06-26T11:59:05;7.25;;;2.17;;
33802;SDS011;20110;53.120;5.786;2023-06-26T12:04:10;15.32;;;3.05;;
33802;SDS011;20110;53.120;5.786;2023-06-26T12:06:38;5.57;;;2.03;;
33802;SDS011;20110;53.120;5.786;2023-06-26T12:09:08;8.05;;;2.65;;
33802;SDS011;20110;53.120;5.786;2023-06-26T12:11:39;9.52;;;2.50;;
33802;SDS011;20110;53.120;5.786;2023-06-26T12:14:08;6.35;;;2.25;;
33802;SDS011;20110;53.120;5.786;2023-06-26T12:16:35;11.27;;;2.60;;
33802;SDS011;20110;53.120;5.786;2023-06-26T12:19:04;6.28;;;1.92;;
33802;SDS011;20110;53.120;5.786;2023-06-26T12:24:07;10.85;;;2.17;;
33802;SDS011;20110;53.120;5.786;2023-06-26T12:26:35;8.38;;;2.05;;
33802;SDS011;20110;53.120;5.786;2023-06-26T12:29:05;6.07;;;2.05;;
33802;SDS011;20110;53.120;5.786;2023-06-26T12:31:33;7.80;;;1.90;;
33802;SDS011;20110;53.120;5.786;2023-06-26T12:33:59;8.93;;;2.00;;
33802;SDS011;20110;53.120;5.786;2023-06-26T12:36:26;6.90;;;1.80;;
33802;SDS011;20110;53.120;5.786;2023-06-26T12:38:55;9.40;;;2.35;;
33802;SDS011;20110;53.120;5.786;2023-06-26T12:41:23;5.82;;;2.05;;
33802;SDS011;20110;53.120;5.786;2023-06-26T12:43:49;5.75;;;2.28;;
33802;SDS011;20110;53.120;5.786;2023-06-26T12:46:32;8.55;;;2.28;;
33802;SDS011;20110;53.120;5.786;2023-06-26T12:49:02;7.95;;;2.45;;
33802;SDS011;20110;53.120;5.786;2023-06-26T12:51:28;6.60;;;2.15;;
33802;SDS011;20110;53.120;5.786;2023-06-26T12:53:54;7.40;;;1.92;;
33802;SDS011;20110;53.120;5.786;2023-06-26T12:56:20;4.85;;;2.05;;
33802;SDS011;20110;53.120;5.786;2023-06-26T12:58:45;6.35;;;1.98;;
33802;SDS011;20110;53.120;5.786;2023-06-26T13:01:11;5.88;;;1.73;;
33802;SDS011;20110;53.120;5.786;2023-06-26T13:03:43;5.47;;;1.70;;
33802;SDS011;20110;53.120;5.786;2023-06-26T13:06:09;6.80;;;2.33;;
33802;SDS011;20110;53.120;5.786;2023-06-26T13:08:35;6.20;;;2.20;;
33802;SDS011;20110;53.120;5.786;2023-06-26T13:11:01;5.03;;;1.55;;
33802;SDS011;20110;53.120;5.786;2023-06-26T13:13:27;4.47;;;1.60;;
33802;SDS011;20110;53.120;5.786;2023-06-26T13:15:53;7.95;;;1.85;;
33802;SDS011;20110;53.120;5.786;2023-06-26T13:18:19;5.57;;;1.75;;
33802;SDS011;20110;53.120;5.786;2023-06-26T13:20:45;8.02;;;2.00;;
33802;SDS011;20110;53.120;5.786;2023-06-26T13:23:11;9.05;;;2.00;;
33802;SDS011;20110;53.120;5.786;2023-06-26T13:25:37;8.23;;;2.22;;
33802;SDS011;20110;53.120;5.786;2023-06-26T13:28:03;5.30;;;2.13;;
33802;SDS011;20110;53.120;5.786;2023-06-26T13:30:29;7.35;;;2.28;;
33802;SDS011;20110;53.120;5.786;2023-06-26T13:32:55;7.32;;;1.75;;
33802;SDS011;20110;53.120;5.786;2023-06-26T13:35:20;3.35;;;1.75;;
33802;SDS011;20110;53.120;5.786;2023-06-26T13:37:46;4.57;;;1.65;;
33802;SDS011;20110;53.120;5.786;2023-06-26T13:40:12;4.97;;;1.77;;
33802;SDS011;20110;53.120;5.786;2023-06-26T13:42:38;3.88;;;1.83;;
33802;SDS011;20110;53.120;5.786;2023-06-26T13:45:05;2.95;;;1.83;;
33802;SDS011;20110;53.120;5.786;2023-06-26T13:47:32;8.40;;;2.33;;
33802;SDS011;20110;53.120;5.786;2023-06-26T13:49:59;6.70;;;1.90;;
33802;SDS011;20110;53.120;5.786;2023-06-26T13:52:25;6.75;;;1.70;;
33802;SDS011;20110;53.120;5.786;2023-06-26T13:54:51;5.38;;;2.47;;
33802;SDS011;20110;53.120;5.786;2023-06-26T13:57:17;5.00;;;1.73;;
33802;SDS011;20110;53.120;5.786;2023-06-26T13:59:44;7.75;;;2.30;;
33802;SDS011;20110;53.120;5.786;2023-06-26T14:02:10;5.65;;;2.08;;
33802;SDS011;20110;53.120;5.786;2023-06-26T14:04:35;6.03;;;1.65;;
33802;SDS011;20110;53.120;5.786;2023-06-26T14:07:02;3.05;;;1.55;;
33802;SDS011;20110;53.120;5.786;2023-06-26T14:09:28;6.47;;;2.00;;
33802;SDS011;20110;53.120;5.786;2023-06-26T14:11:54;11.38;;;1.98;;
33802;SDS011;20110;53.120;5.786;2023-06-26T14:14:20;10.00;;;2.15;;
33802;SDS011;20110;53.120;5.786;2023-06-26T14:16:46;5.72;;;1.75;;
33802;SDS011;20110;53.120;5.786;2023-06-26T14:19:14;7.53;;;1.95;;
33802;SDS011;20110;53.120;5.786;2023-06-26T14:21:42;11.52;;;2.88;;
33802;SDS011;20110;53.120;5.786;2023-06-26T14:24:09;8.02;;;1.90;;
33802;SDS011;20110;53.120;5.786;2023-06-26T14:26:35;8.32;;;1.95;;
33802;SDS011;20110;53.120;5.786;2023-06-26T14:29:01;10.25;;;2.10;;
33802;SDS011;20110;53.120;5.786;2023-06-26T14:31:27;5.82;;;1.83;;
33802;SDS011;20110;53.120;5.786;2023-06-26T14:33:53;5.47;;;2.15;;
33802;SDS011;20110;53.120;5.786;2023-06-26T14:36:19;13.38;;;2.00;;
33802;SDS011;20110;53.120;5.786;2023-06-26T14:38:45;2.70;;;1.48;;
33802;SDS011;20110;53.120;5.786;2023-06-26T14:41:11;8.25;;;1.80;;
33802;SDS011;20110;53.120;5.786;2023-06-26T14:43:38;7.60;;;1.80;;
33802;SDS011;20110;53.120;5.786;2023-06-26T14:46:04;9.45;;;2.15;;
33802;SDS011;20110;53.120;5.786;2023-06-26T14:48:30;6.07;;;1.83;;
33802;SDS011;20110;53.120;5.786;2023-06-26T14:50:56;5.43;;;2.20;;
33802;SDS011;20110;53.120;5.786;2023-06-26T14:53:21;4.35;;;1.88;;
33802;SDS011;20110;53.120;5.786;2023-06-26T14:55:47;2.70;;;1.50;;
33802;SDS011;20110;53.120;5.786;2023-06-26T14:58:13;5.15;;;1.65;;
33802;SDS011;20110;53.120;5.786;2023-06-26T15:00:39;4.88;;;1.65;;